createdAt,value
2023-03-18T00:01:07.410Z,3.20
2023-03-18T00:03:37.782Z,3.63
2023-03-18T00:06:10.314Z,3.50
2023-03-18T00:08:39.429Z,3.40
2023-03-18T00:11:07.908Z,3.53
2023-03-18T00:13:36.041Z,3.27
2023-03-18T00:16:05.631Z,3.10
2023-03-18T00:18:34.372Z,3.07
2023-03-18T00:21:03.898Z,3.30
2023-03-18T00:23:34.552Z,3.20
2023-03-18T00:26:03.320Z,3.23
2023-03-18T00:28:32.681Z,3.13
2023-03-18T00:31:08.540Z,3.70
2023-03-18T00:33:38.131Z,3.30
2023-03-18T00:36:07.451Z,3.50
2023-03-18T00:38:37.154Z,3.53
2023-03-18T00:41:11.429Z,3.50
2023-03-18T00:43:46.140Z,3.47
2023-03-18T00:46:16.382Z,3.13
2023-03-18T00:48:44.661Z,3.30
2023-03-18T00:51:14.241Z,3.50
2023-03-18T00:53:45.010Z,3.10
2023-03-18T00:56:13.166Z,3.33
2023-03-18T00:58:41.776Z,3.23
2023-03-18T01:01:10.148Z,3.27
2023-03-18T01:03:37.929Z,3.10
2023-03-18T01:06:06.118Z,3.90
2023-03-18T01:08:33.905Z,3.60
2023-03-18T01:11:03.432Z,3.40
2023-03-18T01:13:31.674Z,3.97
2023-03-18T01:15:59.770Z,4.53
2023-03-18T01:18:27.845Z,4.13
2023-03-18T01:20:55.616Z,3.97
2023-03-18T01:23:24.191Z,3.97
2023-03-18T01:25:52.317Z,4.03
2023-03-18T01:28:24.287Z,3.33
2023-03-18T01:30:52.067Z,3.67
2023-03-18T01:33:23.095Z,3.80
2023-03-18T01:35:56.550Z,4.10
2023-03-18T01:38:30.352Z,4.40
2023-03-18T01:41:02.955Z,4.43
2023-03-18T01:43:34.938Z,4.10
2023-03-18T01:46:23.908Z,4.00
2023-03-18T01:48:52.987Z,4.10
2023-03-18T01:51:22.537Z,4.23
2023-03-18T01:53:51.945Z,4.20
2023-03-18T01:56:21.200Z,4.20
2023-03-18T01:58:55.952Z,4.30
2023-03-18T02:01:30.133Z,4.20
2023-03-18T02:04:01.033Z,4.13
2023-03-18T02:06:29.373Z,4.60
2023-03-18T02:09:01.752Z,4.60
2023-03-18T02:11:32.464Z,4.47
2023-03-18T02:14:04.047Z,4.70
2023-03-18T02:16:36.078Z,4.97
2023-03-18T02:19:12.046Z,4.20
2023-03-18T02:21:47.789Z,4.50
2023-03-18T02:24:28.837Z,4.40
2023-03-18T02:27:01.765Z,4.00
2023-03-18T02:29:41.175Z,4.40
2023-03-18T02:32:15.419Z,4.53
2023-03-18T02:34:45.232Z,4.37
2023-03-18T02:37:13.440Z,4.60
2023-03-18T02:39:43.350Z,4.17
2023-03-18T02:42:14.058Z,4.47
2023-03-18T02:44:49.558Z,4.27
2023-03-18T02:47:36.725Z,4.13
2023-03-18T02:50:06.615Z,4.30
2023-03-18T02:52:34.834Z,4.27
2023-03-18T02:55:03.716Z,4.33
2023-03-18T02:57:32.400Z,4.43
2023-03-18T03:00:02.410Z,4.23
2023-03-18T03:02:30.477Z,4.37
2023-03-18T03:04:58.883Z,3.93
2023-03-18T03:07:27.770Z,3.90
2023-03-18T03:09:56.791Z,4.10
2023-03-18T03:14:56.917Z,4.57
2023-03-18T03:17:29.490Z,3.97
2023-03-18T03:19:57.970Z,4.10
2023-03-18T03:22:27.018Z,4.10
2023-03-18T03:24:55.255Z,4.20
2023-03-18T03:27:23.122Z,4.23
2023-03-18T03:29:51.229Z,4.70
2023-03-18T03:32:21.666Z,4.53
2023-03-18T03:34:52.355Z,4.77
2023-03-18T03:37:20.232Z,4.67
2023-03-18T03:39:48.963Z,4.60
2023-03-18T03:42:16.688Z,4.50
2023-03-18T03:44:45.760Z,4.47
2023-03-18T03:47:14.045Z,5.03
2023-03-18T03:49:42.617Z,4.87
2023-03-18T03:52:12.922Z,5.40
2023-03-18T03:54:42.761Z,5.00
2023-03-18T03:57:10.830Z,5.80
2023-03-18T03:59:38.778Z,4.80
2023-03-18T04:02:19.117Z,5.23
2023-03-18T04:04:47.356Z,5.90
2023-03-18T04:07:27.106Z,5.47
2023-03-18T04:09:55.986Z,6.40
2023-03-18T04:12:23.980Z,5.87
2023-03-18T04:14:57.534Z,5.80
2023-03-18T04:17:25.669Z,5.70
2023-03-18T04:19:54.334Z,6.20
2023-03-18T04:22:24.817Z,6.40
2023-03-18T04:24:53.974Z,5.50
2023-03-18T04:27:22.717Z,6.07
2023-03-18T04:29:51.916Z,6.87
2023-03-18T04:32:21.763Z,6.37
2023-03-18T04:34:50.369Z,6.40
2023-03-18T04:37:20.063Z,6.27
2023-03-18T04:39:51.294Z,6.40
2023-03-18T04:42:20.495Z,6.47
2023-03-18T04:44:48.648Z,6.13
2023-03-18T04:47:17.215Z,6.43
2023-03-18T04:49:46.713Z,6.70
2023-03-18T04:52:16.391Z,6.10
2023-03-18T04:54:44.778Z,6.00
2023-03-18T04:57:12.914Z,6.17
2023-03-18T04:59:50.106Z,6.13
2023-03-18T05:02:17.854Z,6.43
2023-03-18T05:04:46.052Z,6.60
2023-03-18T05:07:16.408Z,6.30
2023-03-18T05:09:51.633Z,6.30
2023-03-18T05:12:19.639Z,6.40
2023-03-18T05:14:47.916Z,5.77
2023-03-18T05:17:18.191Z,5.90
2023-03-18T05:19:55.261Z,5.80
2023-03-18T05:22:24.845Z,6.40
2023-03-18T05:24:59.678Z,5.47
2023-03-18T05:27:29.796Z,6.07
2023-03-18T05:30:06.034Z,6.40
2023-03-18T05:32:45.458Z,6.10
2023-03-18T05:35:14.488Z,6.10
2023-03-18T05:37:48.172Z,5.70
2023-03-18T05:40:16.562Z,6.00
2023-03-18T05:42:56.802Z,5.90
2023-03-18T05:45:36.285Z,6.20
2023-03-18T05:48:07.773Z,6.00
2023-03-18T05:50:45.080Z,5.60
2023-03-18T05:53:18.331Z,5.50
2023-03-18T05:55:48.723Z,5.03
2023-03-18T05:58:18.244Z,5.33
2023-03-18T06:00:48.181Z,5.60
2023-03-18T06:03:18.353Z,5.50
2023-03-18T06:05:47.666Z,5.47
2023-03-18T06:08:15.577Z,5.53
2023-03-18T06:10:43.356Z,5.50
2023-03-18T06:13:11.755Z,5.70
2023-03-18T06:15:39.934Z,5.40
2023-03-18T06:18:07.989Z,5.30
2023-03-18T06:20:37.265Z,5.17
2023-03-18T06:23:05.281Z,5.27
2023-03-18T06:25:34.069Z,5.30
2023-03-18T06:28:04.507Z,4.70
2023-03-18T06:30:33.753Z,5.07
2023-03-18T06:33:01.693Z,4.87
2023-03-18T06:35:31.673Z,5.47
2023-03-18T06:38:01.317Z,5.20
2023-03-18T06:40:30.071Z,5.30
2023-03-18T06:42:58.341Z,5.13
2023-03-18T06:45:33.353Z,5.20
2023-03-18T06:48:06.444Z,5.37
2023-03-18T06:50:39.622Z,4.77
2023-03-18T06:53:14.214Z,4.87
2023-03-18T06:55:43.167Z,5.40
2023-03-18T06:58:11.634Z,4.83
2023-03-18T07:00:47.761Z,4.63
2023-03-18T07:03:22.295Z,4.23
2023-03-18T07:05:52.727Z,4.50
2023-03-18T07:08:22.002Z,4.07
2023-03-18T07:10:56.978Z,4.40
2023-03-18T07:13:26.667Z,4.97
2023-03-18T07:15:56.680Z,5.00
2023-03-18T07:18:25.503Z,4.77
2023-03-18T07:20:53.298Z,4.37
2023-03-18T07:23:24.684Z,4.70
2023-03-18T07:25:52.716Z,5.00
2023-03-18T07:28:21.032Z,4.67
2023-03-18T07:30:49.983Z,4.80
2023-03-18T07:33:18.153Z,5.00
2023-03-18T07:35:45.984Z,5.10
2023-03-18T07:38:13.797Z,4.87
2023-03-18T07:40:43.054Z,4.70
2023-03-18T07:43:10.862Z,4.87
2023-03-18T07:45:38.654Z,5.00
2023-03-18T07:48:06.663Z,4.63
2023-03-18T07:50:34.680Z,5.17
2023-03-18T07:53:03.001Z,4.53
2023-03-18T07:55:30.974Z,4.33
2023-03-18T07:58:00.422Z,4.90
2023-03-18T08:00:31.405Z,4.87
2023-03-18T08:02:59.323Z,4.80
2023-03-18T08:05:27.668Z,4.77
2023-03-18T08:07:55.585Z,4.90
2023-03-18T08:10:23.997Z,4.27
2023-03-18T08:12:53.809Z,4.50
2023-03-18T08:15:24.350Z,5.17
2023-03-18T08:17:52.729Z,4.90
2023-03-18T08:20:21.435Z,5.00
2023-03-18T08:22:50.023Z,4.73
2023-03-18T08:25:18.391Z,4.53
2023-03-18T08:27:46.204Z,4.60
2023-03-18T08:30:15.184Z,5.33
2023-03-18T08:32:45.131Z,4.40
2023-03-18T08:35:14.189Z,4.37
2023-03-18T08:37:42.594Z,4.27
2023-03-18T08:40:12.066Z,5.43
2023-03-18T08:42:39.954Z,4.60
2023-03-18T08:45:09.788Z,4.50
2023-03-18T08:47:37.547Z,4.30
2023-03-18T08:50:07.499Z,5.23
2023-03-18T08:52:35.578Z,4.43
2023-03-18T08:55:03.561Z,4.23
2023-03-18T08:57:31.983Z,4.40
2023-03-18T08:59:59.885Z,4.40
2023-03-18T09:02:28.599Z,4.73
2023-03-18T09:04:56.541Z,4.27
2023-03-18T09:07:25.739Z,3.63
2023-03-18T09:09:54.053Z,3.43
2023-03-18T09:12:22.116Z,4.00
2023-03-18T09:14:49.992Z,3.60
2023-03-18T09:17:17.859Z,3.20
2023-03-18T09:19:45.881Z,3.30
2023-03-18T09:22:13.822Z,3.23
2023-03-18T09:24:46.100Z,3.47
2023-03-18T09:27:14.235Z,3.10
2023-03-18T09:29:43.219Z,3.63
2023-03-18T09:32:11.206Z,3.43
2023-03-18T09:34:39.140Z,3.20
2023-03-18T09:37:07.109Z,2.90
2023-03-18T09:39:34.889Z,2.90
2023-03-18T09:42:28.598Z,2.10
2023-03-18T09:44:59.692Z,2.63
2023-03-18T09:47:48.113Z,2.60
2023-03-18T09:50:29.175Z,2.80
2023-03-18T09:53:12.911Z,2.60
2023-03-18T09:55:46.969Z,2.00
2023-03-18T09:58:24.560Z,2.20
2023-03-18T10:00:57.428Z,2.23
2023-03-18T10:07:42.877Z,2.53
2023-03-18T10:10:18.093Z,2.40
2023-03-18T10:17:06.996Z,2.20
2023-03-18T10:19:37.658Z,2.30
2023-03-18T10:22:23.682Z,2.20
2023-03-18T10:24:58.494Z,2.00
2023-03-18T10:27:42.687Z,2.27
2023-03-18T10:30:31.804Z,2.23
2023-03-18T10:33:11.593Z,2.53
2023-03-18T10:35:46.765Z,2.57
2023-03-18T10:38:20.680Z,2.27
2023-03-18T10:40:49.271Z,2.90
2023-03-18T10:43:19.503Z,2.10
2023-03-18T10:45:50.036Z,2.00
2023-03-18T10:48:29.546Z,2.10
2023-03-18T10:51:07.567Z,2.90
2023-03-18T10:53:40.233Z,2.37
2023-03-18T10:56:10.395Z,1.80
2023-03-18T10:58:39.139Z,1.90
2023-03-18T11:01:08.735Z,2.03
2023-03-18T11:03:44.122Z,2.10
2023-03-18T11:06:20.139Z,1.90
2023-03-18T11:08:49.967Z,1.60
2023-03-18T11:11:24.526Z,1.73
2023-03-18T11:13:53.928Z,1.80
2023-03-18T11:20:43.175Z,2.30
2023-03-18T11:23:18.019Z,2.00
2023-03-18T11:25:49.826Z,1.90
2023-03-18T11:28:23.095Z,1.60
2023-03-18T11:30:53.976Z,1.63
2023-03-18T11:33:25.966Z,1.83
2023-03-18T11:35:58.563Z,2.00
2023-03-18T11:38:28.990Z,1.60
2023-03-18T11:41:08.891Z,1.87
2023-03-18T11:43:38.617Z,1.70
2023-03-18T11:46:10.215Z,1.90
2023-03-18T11:48:40.375Z,1.90
2023-03-18T11:51:38.212Z,1.97
2023-03-18T11:54:37.108Z,1.90
2023-03-18T11:57:14.878Z,1.80
2023-03-18T11:59:55.847Z,2.10
2023-03-18T12:02:52.496Z,2.13
2023-03-18T12:05:49.750Z,1.90
2023-03-18T12:08:29.583Z,2.10
2023-03-18T12:11:07.433Z,2.00
2023-03-18T12:13:46.137Z,2.40
2023-03-18T12:16:21.964Z,2.10
2023-03-18T12:19:15.334Z,1.60
2023-03-18T12:22:08.495Z,1.70
2023-03-18T12:24:58.155Z,2.20
2023-03-18T12:27:38.534Z,2.70
2023-03-18T12:30:22.947Z,2.20
2023-03-18T12:32:56.434Z,2.00
2023-03-18T12:35:41.615Z,1.90
2023-03-18T12:38:25.116Z,1.87
2023-03-18T12:41:05.947Z,2.40
2023-03-18T12:43:45.380Z,1.80
2023-03-18T12:46:23.290Z,2.43
2023-03-18T12:48:55.747Z,2.30
2023-03-18T12:51:29.926Z,1.90
2023-03-18T12:54:04.469Z,2.10
2023-03-18T12:56:39.887Z,1.63
2023-03-18T12:59:10.546Z,1.83
2023-03-18T13:01:45.513Z,2.47
2023-03-18T13:04:17.343Z,1.50
2023-03-18T13:06:49.461Z,1.83
2023-03-18T13:09:27.145Z,2.03
2023-03-18T13:12:07.445Z,1.90
2023-03-18T13:14:45.799Z,1.50
2023-03-18T13:17:16.634Z,1.87
2023-03-18T13:19:44.840Z,1.77
2023-03-18T13:22:33.266Z,1.63
2023-03-18T13:25:19.577Z,2.00
2023-03-18T13:27:59.393Z,2.07
2023-03-18T13:30:38.413Z,2.00
2023-03-18T13:33:31.343Z,2.73
2023-03-18T13:36:18.356Z,2.53
2023-03-18T13:39:05.838Z,2.20
2023-03-18T13:41:53.870Z,3.60
2023-03-18T13:44:30.050Z,2.97
2023-03-18T13:47:02.604Z,2.77
2023-03-18T13:49:33.089Z,2.87
2023-03-18T13:52:03.737Z,2.80
2023-03-18T13:54:35.961Z,2.60
2023-03-18T13:57:35.842Z,2.57
2023-03-18T14:00:30.514Z,2.70
2023-03-18T14:03:21.928Z,3.23
2023-03-18T14:05:51.518Z,2.33
2023-03-18T14:08:37.289Z,2.43
2023-03-18T14:11:49.905Z,1.93
2023-03-18T14:14:54.819Z,2.00
2023-03-18T14:17:45.569Z,2.43
2023-03-18T14:20:38.444Z,2.67
2023-03-18T14:23:33.269Z,2.50
2023-03-18T14:26:03.703Z,2.30
2023-03-18T14:28:45.627Z,2.10
2023-03-18T14:31:32.542Z,2.17
2023-03-18T14:34:20.887Z,2.20
2023-03-18T14:37:25.374Z,2.30
2023-03-18T14:39:56.338Z,2.70
2023-03-18T14:42:35.388Z,2.70
2023-03-18T14:45:12.167Z,2.30
2023-03-18T14:47:47.779Z,2.30
2023-03-18T14:50:36.182Z,2.40
2023-03-18T14:53:11.432Z,2.70
2023-03-18T14:55:40.279Z,3.23
2023-03-18T14:58:15.971Z,2.87
2023-03-18T15:00:44.522Z,2.40
2023-03-18T15:03:18.912Z,2.53
2023-03-18T15:05:48.983Z,2.80
2023-03-18T15:08:19.749Z,2.93
2023-03-18T15:10:50.440Z,2.30
2023-03-18T15:13:20.416Z,2.50
2023-03-18T15:15:48.289Z,3.23
2023-03-18T15:18:20.005Z,3.40
2023-03-18T15:20:53.514Z,2.90
2023-03-18T15:23:28.845Z,3.27
2023-03-18T15:25:57.258Z,3.63
2023-03-18T15:28:26.645Z,3.37
2023-03-18T15:30:56.012Z,4.10
2023-03-18T15:33:26.123Z,3.57
2023-03-18T15:36:05.917Z,3.93
2023-03-18T15:38:35.001Z,3.70
2023-03-18T15:41:06.289Z,3.40
2023-03-18T15:43:40.115Z,4.17
2023-03-18T15:46:15.265Z,4.53
2023-03-18T15:48:53.985Z,3.90
2023-03-18T15:51:27.692Z,4.70
2023-03-18T15:53:57.859Z,4.60
2023-03-18T15:56:27.395Z,4.97
2023-03-18T15:59:00.700Z,4.30
2023-03-18T16:01:28.786Z,4.30
2023-03-18T16:03:57.000Z,4.07
2023-03-18T16:06:26.935Z,3.70
2023-03-18T16:08:54.701Z,4.40
2023-03-18T16:11:24.852Z,3.13
2023-03-18T16:13:53.764Z,2.97
2023-03-18T16:16:27.681Z,2.50
2023-03-18T16:18:57.166Z,2.03
2023-03-18T16:21:27.165Z,2.60
2023-03-18T16:23:55.057Z,3.07
2023-03-18T16:26:23.880Z,2.47
2023-03-18T16:28:51.970Z,2.70
2023-03-18T16:31:19.911Z,2.00
2023-03-18T16:33:52.688Z,1.80
2023-03-18T16:36:32.141Z,2.10
2023-03-18T16:39:00.174Z,2.80
2023-03-18T16:41:28.046Z,2.07
2023-03-18T16:43:55.914Z,1.77
2023-03-18T16:46:24.819Z,2.07
2023-03-18T16:48:53.173Z,2.17
2023-03-18T16:51:21.403Z,2.27
2023-03-18T16:53:50.818Z,2.40
2023-03-18T16:56:21.292Z,2.00
2023-03-18T16:58:49.457Z,2.30
2023-03-18T17:01:19.441Z,2.10
2023-03-18T17:03:48.044Z,2.30
2023-03-18T17:06:15.997Z,2.40
2023-03-18T17:08:43.906Z,2.10
2023-03-18T17:11:19.288Z,2.40
2023-03-18T17:13:47.540Z,2.00
2023-03-18T17:16:19.280Z,2.10
2023-03-18T17:18:48.233Z,2.17
2023-03-18T17:21:17.049Z,2.70
2023-03-18T17:23:45.659Z,2.93
2023-03-18T17:26:16.128Z,2.60
2023-03-18T17:28:46.728Z,2.63
2023-03-18T17:31:14.844Z,2.90
2023-03-18T17:33:43.227Z,2.90
2023-03-18T17:36:11.370Z,2.87
2023-03-18T17:38:39.128Z,3.10
2023-03-18T17:41:14.823Z,2.90
2023-03-18T17:43:44.382Z,3.03
2023-03-18T17:46:12.478Z,3.13
2023-03-18T17:48:41.120Z,3.20
2023-03-18T17:51:14.985Z,2.67
2023-03-18T17:53:45.375Z,2.63
2023-03-18T17:56:15.708Z,2.63
2023-03-18T17:58:47.335Z,4.03
2023-03-18T18:01:17.507Z,3.00
2023-03-18T18:03:45.341Z,2.73
2023-03-18T18:06:17.855Z,2.90
2023-03-18T18:08:45.641Z,2.37
2023-03-18T18:11:19.486Z,3.10
2023-03-18T18:13:49.512Z,2.80
2023-03-18T18:16:18.707Z,3.27
2023-03-18T18:18:49.525Z,3.40
2023-03-18T18:21:21.279Z,3.00
2023-03-18T18:23:49.115Z,2.97
2023-03-18T18:26:19.572Z,3.50
2023-03-18T18:28:51.303Z,2.97
2023-03-18T18:31:21.531Z,3.20
2023-03-18T18:33:51.456Z,3.10
2023-03-18T18:36:19.556Z,3.20
2023-03-18T18:38:47.509Z,4.60
2023-03-18T18:41:15.391Z,6.10
2023-03-18T18:43:43.278Z,17.17
2023-03-18T18:46:15.260Z,9.10
2023-03-18T18:48:46.780Z,6.03
2023-03-18T18:51:17.436Z,6.03
2023-03-18T18:53:46.029Z,5.20
2023-03-18T18:56:16.293Z,4.73
2023-03-18T18:58:45.533Z,5.00
2023-03-18T19:01:16.149Z,5.00
2023-03-18T19:03:44.563Z,5.93
2023-03-18T19:06:25.645Z,5.60
2023-03-18T19:08:55.798Z,5.17
2023-03-18T19:11:26.703Z,5.13
2023-03-18T19:13:55.129Z,4.80
2023-03-18T19:16:30.750Z,5.00
2023-03-18T19:18:59.773Z,5.60
2023-03-18T19:21:28.297Z,5.40
2023-03-18T19:23:58.349Z,5.60
2023-03-18T19:26:27.289Z,5.47
2023-03-18T19:28:59.389Z,5.13
2023-03-18T19:31:35.116Z,5.47
2023-03-18T19:34:03.334Z,6.03
2023-03-18T19:36:33.334Z,5.27
2023-03-18T19:39:03.805Z,4.93
2023-03-18T19:41:34.140Z,5.27
2023-03-18T19:44:05.148Z,5.23
2023-03-18T19:46:39.045Z,5.57
2023-03-18T19:49:13.664Z,5.10
2023-03-18T19:51:41.783Z,4.97
2023-03-18T19:54:23.935Z,4.33
2023-03-18T19:56:53.173Z,4.30
2023-03-18T19:59:24.006Z,4.17
2023-03-18T20:01:53.952Z,3.93
2023-03-18T20:04:26.612Z,3.90
2023-03-18T20:06:55.318Z,4.00
2023-03-18T20:09:25.048Z,3.93
2023-03-18T20:11:59.718Z,4.43
2023-03-18T20:14:30.982Z,3.97
2023-03-18T20:17:02.773Z,3.87
2023-03-18T20:19:30.898Z,3.90
2023-03-18T20:21:59.503Z,4.13
2023-03-18T20:24:30.339Z,4.10
2023-03-18T20:27:02.118Z,3.83
2023-03-18T20:29:30.143Z,4.50
2023-03-18T20:31:59.711Z,4.30
2023-03-18T20:34:29.084Z,4.50
2023-03-18T20:36:57.169Z,4.73
2023-03-18T20:39:26.412Z,4.70
2023-03-18T20:41:54.568Z,4.47
2023-03-18T20:44:22.479Z,4.17
2023-03-18T20:46:50.540Z,4.27
2023-03-18T20:49:18.542Z,4.17
2023-03-18T20:51:49.182Z,3.80
2023-03-18T20:54:23.989Z,3.43
2023-03-18T20:56:54.364Z,4.13
2023-03-18T20:59:22.768Z,4.27
2023-03-18T21:01:52.370Z,4.23
2023-03-18T21:04:20.258Z,4.33
2023-03-18T21:06:49.724Z,3.80
2023-03-18T21:09:17.813Z,4.10
2023-03-18T21:11:46.308Z,3.97
2023-03-18T21:14:16.417Z,4.03
2023-03-18T21:16:44.371Z,3.90
2023-03-18T21:19:12.639Z,4.27
2023-03-18T21:21:41.242Z,4.13
2023-03-18T21:24:25.622Z,4.00
2023-03-18T21:27:04.311Z,4.03
2023-03-18T21:29:33.344Z,3.80
2023-03-18T21:32:02.605Z,4.03
2023-03-18T21:34:30.791Z,3.90
2023-03-18T21:36:58.684Z,3.50
2023-03-18T21:39:28.151Z,3.97
2023-03-18T21:41:58.101Z,3.20
2023-03-18T21:44:25.886Z,3.63
2023-03-18T21:46:53.673Z,4.53
2023-03-18T21:49:21.787Z,4.00
2023-03-18T21:51:49.544Z,4.53
2023-03-18T21:54:19.740Z,4.57
2023-03-18T21:56:49.296Z,3.80
2023-03-18T21:59:17.096Z,4.13
2023-03-18T22:01:45.124Z,4.30
2023-03-18T22:04:13.861Z,3.67
2023-03-18T22:06:41.776Z,4.00
2023-03-18T22:09:10.218Z,4.50
2023-03-18T22:11:38.229Z,4.40
2023-03-18T22:14:07.528Z,4.23
2023-03-18T22:16:35.367Z,4.00
2023-03-18T22:19:04.051Z,3.83
2023-03-18T22:21:32.133Z,3.83
2023-03-18T22:24:00.648Z,4.00
2023-03-18T22:26:28.609Z,3.60
2023-03-18T22:28:56.483Z,3.90
2023-03-18T22:31:27.620Z,3.50
2023-03-18T22:33:56.329Z,3.60
2023-03-18T22:36:25.618Z,3.70
2023-03-18T22:38:53.859Z,3.60
2023-03-18T22:41:24.240Z,3.60
2023-03-18T22:43:53.300Z,3.60
2023-03-18T22:46:21.213Z,3.27
2023-03-18T22:48:50.458Z,3.33
2023-03-18T22:51:24.410Z,3.43
2023-03-18T22:53:54.103Z,3.90
2023-03-18T22:56:23.168Z,3.20
2023-03-18T22:58:51.330Z,3.13
2023-03-18T23:01:21.772Z,3.03
2023-03-18T23:03:51.388Z,3.30
2023-03-18T23:06:23.874Z,3.57
2023-03-18T23:08:51.846Z,3.47
2023-03-18T23:11:20.016Z,3.30
2023-03-18T23:13:49.928Z,3.37
2023-03-18T23:16:20.628Z,3.40
2023-03-18T23:18:49.071Z,4.00
2023-03-18T23:21:20.416Z,4.17
2023-03-18T23:23:48.940Z,4.40
2023-03-18T23:26:17.658Z,4.10
2023-03-18T23:28:46.149Z,4.10
2023-03-18T23:31:14.579Z,4.07
2023-03-18T23:33:42.479Z,4.33
2023-03-18T23:36:11.043Z,4.10
2023-03-18T23:38:40.685Z,3.70
2023-03-18T23:41:08.616Z,3.73
2023-03-18T23:43:37.206Z,3.73
2023-03-18T23:46:05.328Z,3.67
2023-03-18T23:48:33.305Z,4.33
2023-03-18T23:51:03.130Z,3.77
2023-03-18T23:53:31.049Z,4.60
2023-03-18T23:56:00.663Z,4.00
2023-03-18T23:58:28.471Z,4.03
